Wednesday, June 20, 2018, 7:32 AM GMT
Back to Local

CYHU, Saint Hubert Airport

Location: , , Canada Lat: 45.517
Local Time: 7:32 AM GMT ( 7:32 GMT) Lon: -73.417
Time Zone: GMT Elev: 88 ft

Show me the last for .
Show Coded

Time T Td Feel RH Dir Speed Gust Alt SLP Vis Weather Sky Remarks
2018-06-20 07:00 57 52 - 82 220° 6 - 29.85 29.86 9 CLR None
2018-06-20 06:00 59 54 - 82 220° 7 - 29.86 29.87 9 CLR None
2018-06-20 05:00 61 50 - 67 260° 7 - 29.87 29.88 9 CLR None
2018-06-20 04:00 63 48 - 59 240° 7 - 29.87 29.88 9 CLR None
2018-06-20 03:00 66 48 - 52 290° 7 - 29.87 29.88 9 CLR None
2018-06-20 02:00 68 46 - 45 280° 9 - 29.88 29.88 9 CLR None
2018-06-20 01:00 70 46 - 43 280° 9 - 29.86 29.87 9 CLR None
2018-06-20 00:00 73 46 - 38 270° 9 - 29.86 29.86 9 CLR None
2018-06-19 23:00 75 43 - 31 320° 9 - 29.85 29.85 9 CLR None
2018-06-19 22:00 75 45 - 33 310° 5 - 29.85 29.85 9 CLR None
2018-06-19 21:00 75 45 - 33 340° 10 17 29.85 29.85 9 CLR None
2018-06-19 20:00 75 45 - 33 340° 12 20 29.85 29.86 9 CLR None
2018-06-19 19:00 75 50 77 41 300° 10 17 29.85 29.85 9 CLR None
2018-06-19 18:00 73 52 76 46 Variable 8 18 29.86 29.87 9 CLR None
2018-06-19 17:00 72 48 76 43 310° 9 18 29.87 29.88 9 CLR None
2018-06-19 16:00 68 50 - 52 300° 13 18 29.89 29.89 9 CLR None
2018-06-19 15:00 66 50 - 55 310° 7 - 29.90 29.90 9 CLR None
2018-06-19 14:00 64 50 - 59 330° 12 17 29.90 29.91 9 CLR None
2018-06-19 13:00 61 48 - 63 330° 14 21 29.90 29.91 9 CLR None
2018-06-19 12:00 61 50 - 67 330° 8 - 29.89 29.90 9 CLR None
2018-06-19 11:00 57 48 - 71 330° 10 - 29.88 29.88 9 CLR None
2018-06-19 10:00 57 48 - 71 320° 18 24 29.84 29.85 9 BKN026 None
2018-06-19 09:00 57 50 - 76 340° 16 23 29.81 29.81 9 CLR Pressure rising rapidly
2018-06-19 08:00 63 55 - 77 320° 14 - 29.76 29.77 9 CLR None

Support USWX by starting your Amazon purchase here.